createdAt,value
2016-11-03T00:00:32.447Z,20.44
2016-11-03T00:01:32.738Z,20.38
2016-11-03T00:02:32.720Z,20.38
2016-11-03T00:03:32.692Z,20.38
2016-11-03T00:04:32.680Z,20.3
2016-11-03T00:05:32.677Z,20.31
2016-11-03T00:06:32.649Z,20.33
2016-11-03T00:07:32.030Z,20.27
2016-11-03T00:08:32.619Z,20.27
2016-11-03T00:09:32.608Z,20.4
2016-11-03T00:10:32.585Z,20.41
2016-11-03T00:11:32.567Z,20.37
2016-11-03T00:12:32.557Z,20.4
2016-11-03T00:13:32.533Z,20.34
2016-11-03T00:14:32.555Z,20.48
2016-11-03T00:15:32.508Z,20.41
2016-11-03T00:16:32.191Z,20.4
2016-11-03T00:17:32.178Z,20.4
2016-11-03T00:18:32.379Z,20.35
2016-11-03T00:19:32.438Z,20.42
2016-11-03T00:20:32.432Z,20.41
2016-11-03T00:21:32.414Z,20.42
2016-11-03T00:22:32.394Z,20.41
2016-11-03T00:23:32.383Z,20.44
2016-11-03T00:24:32.407Z,20.34
2016-11-03T00:25:32.355Z,20.42
2016-11-03T00:26:32.032Z,20.37
2016-11-03T00:27:32.321Z,20.34
2016-11-03T00:28:32.301Z,20.37
2016-11-03T00:29:31.984Z,20.33
2016-11-03T00:30:31.973Z,20.38
2016-11-03T00:31:31.958Z,20.35
2016-11-03T00:32:32.272Z,20.34
2016-11-03T00:33:31.926Z,20.35
2016-11-03T00:34:32.208Z,20.31
2016-11-03T00:35:31.893Z,20.33
2016-11-03T00:36:31.880Z,20.31
2016-11-03T00:37:32.158Z,20.34
2016-11-03T00:38:32.143Z,20.25
2016-11-03T00:39:31.832Z,20.25
2016-11-03T00:40:31.848Z,20.35
2016-11-03T00:41:32.093Z,20.25
2016-11-03T00:42:32.087Z,20.26
2016-11-03T00:43:32.068Z,20.25
2016-11-03T00:44:31.749Z,20.33
2016-11-03T00:45:32.038Z,20.25
2016-11-03T00:46:32.022Z,20.33
2016-11-03T00:47:32.001Z,20.27
2016-11-03T00:48:31.980Z,20.27
2016-11-03T00:49:31.665Z,20.22
2016-11-03T00:50:31.646Z,20.23
2016-11-03T00:51:31.940Z,20.33
2016-11-03T00:52:31.917Z,20.19
2016-11-03T00:53:31.906Z,20.2
2016-11-03T00:54:31.897Z,20.27
2016-11-03T00:55:31.580Z,20.19
2016-11-03T00:56:31.596Z,20.23
2016-11-03T00:57:31.848Z,20.23
2016-11-03T00:58:31.823Z,20.19
2016-11-03T00:59:31.811Z,20.22
2016-11-03T01:00:31.804Z,20.16
2016-11-03T01:01:31.776Z,20.22
2016-11-03T01:02:31.761Z,20.2
2016-11-03T01:03:31.746Z,20.25
2016-11-03T01:04:31.729Z,20.2
2016-11-03T01:05:31.418Z,20.26
2016-11-03T01:06:31.699Z,20.3
2016-11-03T01:07:31.693Z,20.31
2016-11-03T01:08:31.672Z,20.23
2016-11-03T01:09:31.650Z,20.2
2016-11-03T01:10:31.637Z,20.25
2016-11-03T01:11:31.316Z,20.19
2016-11-03T01:12:31.609Z,20.17
2016-11-03T01:13:31.596Z,20.19
2016-11-03T01:14:31.275Z,20.15
2016-11-03T01:15:31.565Z,20.13
2016-11-03T01:16:31.543Z,20.12
2016-11-03T01:17:31.570Z,20.17
2016-11-03T01:18:31.213Z,20.17
2016-11-03T01:19:31.544Z,20.17
2016-11-03T01:20:31.481Z,20.17
2016-11-03T01:21:31.471Z,20.16
2016-11-03T01:22:31.441Z,20.23
2016-11-03T01:23:31.438Z,20.2
2016-11-03T01:24:31.419Z,20.05
2016-11-03T01:25:31.402Z,20.12
2016-11-03T01:26:31.389Z,20.1
2016-11-03T01:27:31.371Z,20.05
2016-11-03T01:28:31.358Z,20.13
2016-11-03T01:29:31.341Z,20.19
2016-11-03T01:30:31.320Z,20.15
2016-11-03T01:31:31.307Z,20.2
2016-11-03T01:32:31.284Z,20.07
2016-11-03T01:33:31.275Z,20.12
2016-11-03T01:34:31.258Z,20.1
2016-11-03T01:35:31.241Z,20.15
2016-11-03T01:36:31.231Z,20.1
2016-11-03T01:37:31.207Z,20.1
2016-11-03T01:38:31.240Z,20.04
2016-11-03T01:39:30.875Z,19.97
2016-11-03T01:40:30.859Z,20.08
2016-11-03T01:41:30.840Z,20.1
2016-11-03T01:42:31.133Z,20.04
2016-11-03T01:43:31.118Z,20.12
2016-11-03T01:44:31.095Z,19.9
2016-11-03T01:45:31.091Z,19.97
2016-11-03T01:46:31.074Z,19.98
2016-11-03T01:47:31.054Z,20.08
2016-11-03T01:48:31.038Z,19.95
2016-11-03T01:49:31.021Z,20
2016-11-03T01:50:30.697Z,19.95
2016-11-03T01:51:30.384Z,20.02
2016-11-03T01:52:30.671Z,19.95
2016-11-03T01:53:30.960Z,20.01
2016-11-03T01:54:30.981Z,19.95
2016-11-03T01:55:30.927Z,20.02
2016-11-03T01:56:30.908Z,20.07
2016-11-03T01:57:30.884Z,19.97
2016-11-03T01:58:30.876Z,19.95
2016-11-03T01:59:30.861Z,19.95
2016-11-03T02:00:30.539Z,20
2016-11-03T02:01:30.834Z,19.92
2016-11-03T02:02:30.808Z,19.94
2016-11-03T02:03:30.836Z,19.94
2016-11-03T02:04:30.776Z,19.9
2016-11-03T02:05:30.757Z,19.95
2016-11-03T02:06:30.752Z,19.97
2016-11-03T02:07:30.729Z,19.94
2016-11-03T02:08:30.713Z,19.94
2016-11-03T02:09:30.703Z,19.92
2016-11-03T02:10:30.686Z,19.95
2016-11-03T02:11:30.668Z,19.95
2016-11-03T02:12:30.392Z,19.94
2016-11-03T02:13:30.639Z,19.97
2016-11-03T02:14:30.023Z,19.95
2016-11-03T02:15:30.607Z,19.9
2016-11-03T02:16:30.585Z,19.97
2016-11-03T02:17:30.566Z,19.98
2016-11-03T02:18:30.552Z,19.97
2016-11-03T02:19:30.232Z,19.95
2016-11-03T02:20:30.223Z,19.92
2016-11-03T02:21:30.496Z,19.92
2016-11-03T02:22:30.487Z,19.97
2016-11-03T02:23:30.515Z,19.95
2016-11-03T02:24:30.452Z,19.98
2016-11-03T02:25:30.442Z,19.9
2016-11-03T02:26:30.123Z,19.95
2016-11-03T02:27:30.425Z,19.97
2016-11-03T02:28:29.789Z,19.9
2016-11-03T02:29:30.080Z,19.89
2016-11-03T02:30:30.359Z,19.97
2016-11-03T02:31:30.344Z,19.95
2016-11-03T02:32:30.031Z,19.98
2016-11-03T02:33:30.306Z,19.92
2016-11-03T02:34:29.992Z,19.92
2016-11-03T02:35:30.291Z,19.95
2016-11-03T02:36:30.265Z,19.89
2016-11-03T02:37:30.255Z,19.92
2016-11-03T02:38:30.226Z,19.97
2016-11-03T02:39:30.207Z,19.97
2016-11-03T02:40:29.892Z,19.95
2016-11-03T02:41:29.883Z,20
2016-11-03T02:42:30.174Z,19.94
2016-11-03T02:43:29.849Z,19.95
2016-11-03T02:44:30.134Z,19.95
2016-11-03T02:45:30.114Z,19.92
2016-11-03T02:46:29.797Z,19.98
2016-11-03T02:47:30.080Z,19.97
2016-11-03T02:48:30.065Z,19.98
2016-11-03T02:49:30.052Z,20
2016-11-03T02:50:30.033Z,19.87
2016-11-03T02:51:30.059Z,19.92
2016-11-03T02:52:30.004Z,19.94
2016-11-03T02:53:29.991Z,19.92
2016-11-03T02:54:30.015Z,20
2016-11-03T02:55:29.953Z,19.98
2016-11-03T02:56:29.939Z,19.92
2016-11-03T02:57:29.636Z,19.9
2016-11-03T02:58:29.905Z,19.92
2016-11-03T02:59:29.892Z,19.94
2016-11-03T03:00:29.874Z,19.87
2016-11-03T03:01:29.557Z,19.8
2016-11-03T03:02:29.844Z,19.79
2016-11-03T03:03:29.827Z,19.82
2016-11-03T03:04:29.812Z,19.83
2016-11-03T03:05:29.792Z,19.86
2016-11-03T03:06:29.781Z,19.82
2016-11-03T03:07:29.760Z,19.8
2016-11-03T03:08:29.751Z,19.8
2016-11-03T03:09:29.728Z,19.86
2016-11-03T03:10:29.712Z,19.86
2016-11-03T03:11:29.697Z,19.86
2016-11-03T03:12:29.728Z,19.86
2016-11-03T03:13:29.661Z,19.82
2016-11-03T03:14:29.647Z,19.83
2016-11-03T03:15:29.632Z,19.86
2016-11-03T03:16:29.315Z,19.78
2016-11-03T03:17:29.610Z,19.83
2016-11-03T03:18:29.584Z,19.79
2016-11-03T03:19:29.571Z,19.82
2016-11-03T03:20:29.552Z,19.76
2016-11-03T03:21:29.544Z,19.8
2016-11-03T03:22:29.218Z,19.79
2016-11-03T03:23:29.503Z,19.83
2016-11-03T03:24:29.483Z,19.85
2016-11-03T03:25:29.472Z,19.83
2016-11-03T03:26:29.453Z,19.8
2016-11-03T03:27:29.437Z,19.86
2016-11-03T03:28:29.466Z,19.83
2016-11-03T03:29:29.408Z,19.82
2016-11-03T03:30:29.398Z,19.79
2016-11-03T03:31:29.391Z,19.79
2016-11-03T03:32:29.361Z,19.76
2016-11-03T03:33:29.338Z,19.78
2016-11-03T03:34:29.329Z,19.8
2016-11-03T03:35:29.308Z,19.76
2016-11-03T03:36:29.290Z,19.82
2016-11-03T03:37:29.276Z,19.75
2016-11-03T03:38:29.256Z,19.8
2016-11-03T03:39:29.243Z,19.79
2016-11-03T03:40:29.224Z,19.82
2016-11-03T03:41:29.212Z,19.8
2016-11-03T03:42:29.192Z,19.75
2016-11-03T03:43:29.181Z,19.8
2016-11-03T03:44:29.163Z,19.8
2016-11-03T03:45:29.146Z,19.76
2016-11-03T03:46:29.127Z,19.72
2016-11-03T03:47:29.111Z,19.76
2016-11-03T03:48:29.098Z,19.75
2016-11-03T03:49:28.789Z,19.82
2016-11-03T03:50:29.066Z,19.7
2016-11-03T03:51:29.048Z,19.7
2016-11-03T03:52:29.033Z,19.68
2016-11-03T03:53:29.016Z,19.67
2016-11-03T03:54:29.017Z,19.65
2016-11-03T03:55:28.985Z,19.67
2016-11-03T03:56:28.964Z,19.68
2016-11-03T03:57:28.958Z,19.68
2016-11-03T03:58:28.635Z,19.62
2016-11-03T03:59:28.933Z,19.67
2016-11-03T04:00:28.909Z,19.64
2016-11-03T04:01:28.884Z,19.68
2016-11-03T04:02:28.872Z,19.68
2016-11-03T04:03:28.854Z,19.68
2016-11-03T04:04:28.837Z,19.62
2016-11-03T04:05:28.523Z,19.82
2016-11-03T04:06:28.804Z,19.65
2016-11-03T04:07:28.799Z,19.67
2016-11-03T04:08:28.780Z,19.6
2016-11-03T04:09:28.757Z,19.65
2016-11-03T04:10:28.739Z,19.71
2016-11-03T04:11:28.424Z,19.71
2016-11-03T04:12:28.707Z,19.65
2016-11-03T04:13:28.690Z,19.71
2016-11-03T04:14:28.371Z,19.78
2016-11-03T04:15:28.657Z,19.7
2016-11-03T04:16:28.648Z,19.67
2016-11-03T04:17:28.631Z,19.64
2016-11-03T04:18:28.611Z,19.61
2016-11-03T04:19:28.592Z,19.68
2016-11-03T04:20:28.583Z,19.62
2016-11-03T04:21:28.564Z,19.65
2016-11-03T04:22:28.543Z,19.6
2016-11-03T04:23:28.525Z,19.6
2016-11-03T04:24:28.516Z,19.76
2016-11-03T04:25:28.501Z,19.64
2016-11-03T04:26:28.478Z,19.7
2016-11-03T04:27:27.861Z,19.65
2016-11-03T04:28:28.445Z,19.71
2016-11-03T04:29:28.426Z,19.72
2016-11-03T04:30:28.411Z,19.65
2016-11-03T04:31:28.395Z,19.71
2016-11-03T04:32:28.380Z,19.62
2016-11-03T04:33:28.370Z,19.61
2016-11-03T04:34:28.362Z,19.65
2016-11-03T04:35:28.351Z,19.6
2016-11-03T04:36:28.360Z,19.68
2016-11-03T04:37:28.300Z,19.61
2016-11-03T04:38:27.982Z,19.6
2016-11-03T04:39:28.270Z,19.67
2016-11-03T04:40:27.951Z,19.6
2016-11-03T04:41:27.946Z,19.57
2016-11-03T04:42:27.910Z,19.55
2016-11-03T04:43:28.213Z,19.57
2016-11-03T04:44:27.591Z,19.7
2016-11-03T04:45:27.870Z,19.64
2016-11-03T04:46:27.854Z,19.65
2016-11-03T04:47:27.541Z,19.57
2016-11-03T04:48:28.121Z,19.62
2016-11-03T04:49:28.102Z,19.6
2016-11-03T04:50:28.086Z,19.53
2016-11-03T04:51:27.768Z,19.62
2016-11-03T04:52:28.054Z,19.62
2016-11-03T04:53:28.038Z,19.64
2016-11-03T04:54:27.725Z,19.6
2016-11-03T04:55:28.006Z,19.62
2016-11-03T04:56:27.987Z,19.6
2016-11-03T04:57:27.671Z,19.65
2016-11-03T04:58:27.658Z,19.6
2016-11-03T04:59:27.639Z,19.55
2016-11-03T05:00:27.932Z,19.68
2016-11-03T05:01:27.911Z,19.6
2016-11-03T05:02:27.593Z,19.68
2016-11-03T05:03:27.878Z,19.61
2016-11-03T05:04:27.556Z,19.67
2016-11-03T05:05:27.846Z,19.57
2016-11-03T05:06:27.526Z,19.71
2016-11-03T05:07:27.811Z,19.68
2016-11-03T05:08:27.492Z,19.82
2016-11-03T05:09:27.779Z,19.82
2016-11-03T05:10:27.757Z,20.01
2016-11-03T05:11:27.750Z,19.98
2016-11-03T05:12:27.727Z,20.16
2016-11-03T05:13:27.718Z,20.07
2016-11-03T05:14:27.689Z,20.19
2016-11-03T05:15:27.679Z,20.23
2016-11-03T05:16:27.670Z,20.26
2016-11-03T05:17:27.641Z,20.37
2016-11-03T05:18:27.642Z,20.41
2016-11-03T05:19:27.614Z,20.42
2016-11-03T05:20:27.604Z,20.48
2016-11-03T05:21:27.580Z,20.66
2016-11-03T05:22:27.563Z,20.6
2016-11-03T05:23:27.264Z,20.72
2016-11-03T05:24:27.235Z,20.75
2016-11-03T05:25:27.213Z,20.79
2016-11-03T05:26:27.498Z,20.85
2016-11-03T05:27:27.485Z,20.87
2016-11-03T05:28:27.478Z,20.87
2016-11-03T05:29:27.455Z,20.83
2016-11-03T05:30:27.889Z,20.91
2016-11-03T05:31:27.114Z,20.93
2016-11-03T05:32:27.401Z,20.94
2016-11-03T05:33:27.386Z,20.87
2016-11-03T05:34:27.370Z,20.83
2016-11-03T05:35:27.361Z,20.82
2016-11-03T05:36:27.374Z,20.85
2016-11-03T05:37:27.025Z,20.9
2016-11-03T05:38:27.303Z,20.88
2016-11-03T05:39:27.294Z,20.97
2016-11-03T05:40:27.277Z,20.87
2016-11-03T05:41:27.258Z,20.96
2016-11-03T05:42:27.241Z,20.85
2016-11-03T05:43:27.235Z,20.87
2016-11-03T05:44:26.610Z,20.94
2016-11-03T05:45:27.195Z,20.88
2016-11-03T05:46:27.180Z,20.87
2016-11-03T05:47:26.862Z,20.83
2016-11-03T05:48:27.145Z,20.91
2016-11-03T05:49:26.828Z,20.88
2016-11-03T05:50:27.119Z,20.88
2016-11-03T05:51:27.104Z,20.91
2016-11-03T05:52:27.086Z,20.83
2016-11-03T05:53:27.071Z,20.87
2016-11-03T05:54:27.051Z,20.81
2016-11-03T05:55:27.037Z,20.9
2016-11-03T05:56:27.019Z,20.94
2016-11-03T05:57:27.004Z,20.97
2016-11-03T05:58:26.989Z,20.94
2016-11-03T05:59:26.978Z,20.88
2016-11-03T06:00:26.955Z,20.88
2016-11-03T06:01:26.941Z,21
2016-11-03T06:02:26.929Z,20.98
2016-11-03T06:03:26.911Z,20.96
2016-11-03T06:04:26.890Z,21
2016-11-03T06:05:26.883Z,20.91
2016-11-03T06:06:26.872Z,20.88
2016-11-03T06:07:26.857Z,20.94
2016-11-03T06:08:26.833Z,20.88
2016-11-03T06:09:26.815Z,20.82
2016-11-03T06:10:26.801Z,20.87
2016-11-03T06:11:26.781Z,20.85
2016-11-03T06:12:26.770Z,20.81
2016-11-03T06:13:26.451Z,20.85
2016-11-03T06:14:26.742Z,20.87
2016-11-03T06:15:26.720Z,20.87
2016-11-03T06:16:26.709Z,20.94
2016-11-03T06:17:26.688Z,20.85
2016-11-03T06:18:26.675Z,20.94
2016-11-03T06:19:26.659Z,20.97
2016-11-03T06:20:26.639Z,20.98
2016-11-03T06:21:26.626Z,21
2016-11-03T06:22:26.606Z,20.98
2016-11-03T06:23:26.595Z,21.01
2016-11-03T06:24:26.582Z,20.98
2016-11-03T06:25:26.561Z,21
2016-11-03T06:26:26.549Z,21.06
2016-11-03T06:27:26.546Z,21.05
2016-11-03T06:28:26.515Z,21.13
2016-11-03T06:29:26.505Z,21.06
2016-11-03T06:30:26.518Z,21.12
2016-11-03T06:31:26.467Z,21.16
2016-11-03T06:32:26.454Z,21.16
2016-11-03T06:33:26.436Z,21.19
2016-11-03T06:34:26.421Z,21.13
2016-11-03T06:35:26.414Z,21.11
2016-11-03T06:36:26.397Z,21.21
2016-11-03T06:37:26.379Z,21.26
2016-11-03T06:38:26.362Z,21.12
2016-11-03T06:39:26.347Z,21.21
2016-11-03T06:40:26.330Z,21.26
2016-11-03T06:41:26.332Z,21.21
2016-11-03T06:42:26.298Z,21.26
2016-11-03T06:43:26.284Z,21.22
2016-11-03T06:44:25.971Z,21.31
2016-11-03T06:45:25.952Z,21.28
2016-11-03T06:46:26.238Z,21.3
2016-11-03T06:47:25.923Z,21.28
2016-11-03T06:48:26.204Z,21.3
2016-11-03T06:49:26.188Z,21.28
2016-11-03T06:50:26.175Z,21.22
2016-11-03T06:51:25.863Z,21.26
2016-11-03T06:52:26.143Z,21.19
2016-11-03T06:53:26.139Z,21.26
2016-11-03T06:54:26.117Z,21.34
2016-11-03T06:55:26.097Z,21.26
2016-11-03T06:56:26.080Z,21.3
2016-11-03T06:57:26.069Z,21.36
2016-11-03T06:58:26.048Z,21.4
2016-11-03T06:59:26.033Z,21.38
2016-11-03T07:00:26.017Z,21.36
2016-11-03T07:01:26.012Z,21.4
2016-11-03T07:02:25.691Z,21.33
2016-11-03T07:03:25.968Z,21.42
2016-11-03T07:04:25.956Z,21.43
2016-11-03T07:05:25.947Z,21.42
2016-11-03T07:06:25.928Z,21.4
2016-11-03T07:07:25.611Z,21.46
2016-11-03T07:08:25.895Z,21.45
2016-11-03T07:09:25.875Z,21.37
2016-11-03T07:10:25.870Z,21.38
2016-11-03T07:11:25.854Z,21.48
2016-11-03T07:12:25.833Z,21.38
2016-11-03T07:13:25.255Z,21.38
2016-11-03T07:14:25.502Z,21.46
2016-11-03T07:15:25.791Z,21.33
2016-11-03T07:16:25.775Z,21.38
2016-11-03T07:17:25.763Z,21.33
2016-11-03T07:18:25.444Z,21.36
2016-11-03T07:19:25.729Z,21.37
2016-11-03T07:20:25.718Z,21.4
2016-11-03T07:21:25.699Z,21.4
2016-11-03T07:22:25.375Z,21.31
2016-11-03T07:23:25.682Z,21.4
2016-11-03T07:24:25.661Z,21.31
2016-11-03T07:25:25.633Z,21.34
2016-11-03T07:26:25.322Z,21.3
2016-11-03T07:27:25.609Z,21.31
2016-11-03T07:28:25.585Z,21.36
2016-11-03T07:29:25.272Z,21.38
2016-11-03T07:30:25.556Z,21.33
2016-11-03T07:31:25.547Z,21.34
2016-11-03T07:32:25.225Z,21.26
2016-11-03T07:33:25.551Z,20.98
2016-11-03T07:34:24.897Z,20.75
2016-11-03T07:35:25.189Z,20.5
2016-11-03T07:36:25.458Z,20.25
2016-11-03T07:37:25.445Z,20.1
2016-11-03T07:38:25.432Z,20.12
2016-11-03T07:39:25.415Z,19.95
2016-11-03T07:40:25.441Z,19.97
2016-11-03T07:41:25.394Z,19.97
2016-11-03T07:42:25.379Z,20
2016-11-03T07:43:25.050Z,19.94
2016-11-03T07:44:25.045Z,19.98
2016-11-03T07:45:25.335Z,19.94
2016-11-03T07:46:25.309Z,19.95
2016-11-03T07:47:25.294Z,20.02
2016-11-03T07:48:25.270Z,20.15
2016-11-03T07:49:25.263Z,20.08
2016-11-03T07:50:25.255Z,20.16
2016-11-03T07:51:25.223Z,20.17
2016-11-03T07:52:25.214Z,20.31
2016-11-03T07:53:25.205Z,20.2
2016-11-03T07:54:25.177Z,20.19
2016-11-03T07:55:24.860Z,20.15
2016-11-03T07:56:25.150Z,20.23
2016-11-03T07:57:25.127Z,20.25
2016-11-03T07:58:25.144Z,20.23
2016-11-03T07:59:25.095Z,20.31
2016-11-03T08:00:24.778Z,20.19
2016-11-03T08:01:25.063Z,20.17
2016-11-03T08:02:25.046Z,20.2
2016-11-03T08:03:25.037Z,20.1
2016-11-03T08:04:25.020Z,20.08
2016-11-03T08:05:25.004Z,20.12
2016-11-03T08:06:24.714Z,20.07
2016-11-03T08:07:24.969Z,20.05
2016-11-03T08:08:24.650Z,20.12
2016-11-03T08:09:24.937Z,20.2
2016-11-03T08:10:24.615Z,20.33
2016-11-03T08:11:24.926Z,20.42
2016-11-03T08:12:24.885Z,20.48
2016-11-03T08:13:24.873Z,20.51
2016-11-03T08:14:24.864Z,20.57
2016-11-03T08:15:24.574Z,20.71
2016-11-03T08:16:24.829Z,20.72
2016-11-03T08:17:24.508Z,20.73
2016-11-03T08:18:24.489Z,20.76
2016-11-03T08:19:24.781Z,20.79
2016-11-03T08:20:24.757Z,20.75
2016-11-03T08:21:24.774Z,20.75
2016-11-03T08:22:24.764Z,20.76
2016-11-03T08:23:24.749Z,20.75
2016-11-03T08:24:24.732Z,20.78
2016-11-03T08:25:24.682Z,20.79
2016-11-03T08:26:24.691Z,20.83
2016-11-03T08:27:24.654Z,20.82
2016-11-03T08:28:24.653Z,20.72
2016-11-03T08:29:24.627Z,20.75
2016-11-03T08:30:24.343Z,20.66
2016-11-03T08:31:24.588Z,20.78
2016-11-03T08:32:24.574Z,20.72
2016-11-03T08:33:24.554Z,20.72
2016-11-03T08:34:24.537Z,20.72
2016-11-03T08:35:24.529Z,20.72
2016-11-03T08:36:24.508Z,20.68
2016-11-03T08:37:24.501Z,20.63
2016-11-03T08:38:24.473Z,20.68
2016-11-03T08:39:24.158Z,20.68
2016-11-03T08:40:24.451Z,20.63
2016-11-03T08:41:24.429Z,20.73
2016-11-03T08:42:24.420Z,20.72
2016-11-03T08:43:24.398Z,20.72
2016-11-03T08:44:24.384Z,20.75
2016-11-03T08:45:24.369Z,20.85
2016-11-03T08:46:24.359Z,20.87
2016-11-03T08:47:24.341Z,20.83
2016-11-03T08:48:24.315Z,20.9
2016-11-03T08:49:24.302Z,20.87
2016-11-03T08:50:24.288Z,20.83
2016-11-03T08:51:24.279Z,20.94
2016-11-03T08:52:24.259Z,20.98
2016-11-03T08:53:24.245Z,21
2016-11-03T08:54:24.230Z,21.01
2016-11-03T08:55:24.220Z,20.96
2016-11-03T08:56:23.897Z,21
2016-11-03T08:57:24.184Z,20.87
2016-11-03T08:58:24.161Z,20.91
2016-11-03T08:59:24.155Z,20.73
2016-11-03T09:00:23.832Z,20.73
2016-11-03T09:01:24.119Z,20.73
2016-11-03T09:02:24.104Z,20.79
2016-11-03T09:03:24.100Z,20.73
2016-11-03T09:04:24.075Z,20.61
2016-11-03T09:05:24.060Z,20.5
2016-11-03T09:06:24.049Z,20.44
2016-11-03T09:07:24.059Z,20.42
2016-11-03T09:08:24.011Z,20.33
2016-11-03T09:09:23.993Z,20.27
2016-11-03T09:10:23.980Z,20.25
2016-11-03T09:11:23.974Z,20.31
2016-11-03T09:12:23.955Z,20.33
2016-11-03T09:13:23.928Z,20.3
2016-11-03T09:14:23.928Z,20.34
2016-11-03T09:15:23.903Z,20.26
2016-11-03T09:16:23.925Z,20.23
2016-11-03T09:17:23.870Z,20.22
2016-11-03T09:18:23.845Z,20.19
2016-11-03T09:19:23.842Z,20.13
2016-11-03T09:20:23.823Z,19.97
2016-11-03T09:21:23.803Z,20
2016-11-03T09:22:23.786Z,20.08
2016-11-03T09:23:23.777Z,20.3
2016-11-03T09:24:23.756Z,20.66
2016-11-03T09:25:23.746Z,20.93
2016-11-03T09:26:23.725Z,21.08
2016-11-03T09:27:23.709Z,21.26
2016-11-03T09:28:23.698Z,21.37
2016-11-03T09:29:23.677Z,21.55
2016-11-03T09:30:23.661Z,21.49
2016-11-03T09:31:23.655Z,21.53
2016-11-03T09:32:23.637Z,21.58
2016-11-03T09:33:23.622Z,21.66
2016-11-03T09:34:23.605Z,21.55
2016-11-03T09:35:23.584Z,21.66
2016-11-03T09:36:23.568Z,21.55
2016-11-03T09:37:23.554Z,21.67
2016-11-03T09:38:23.554Z,21.66
2016-11-03T09:39:23.525Z,21.61
2016-11-03T09:40:23.543Z,21.7
2016-11-03T09:41:23.491Z,21.61
2016-11-03T09:42:23.480Z,21.64
2016-11-03T09:43:23.464Z,21.68
2016-11-03T09:44:23.140Z,21.58
2016-11-03T09:45:23.435Z,21.64
2016-11-03T09:46:23.122Z,21.61
2016-11-03T09:47:23.401Z,21.7
2016-11-03T09:48:23.393Z,21.59
2016-11-03T09:49:23.371Z,21.63
2016-11-03T09:50:23.355Z,21.61
2016-11-03T09:51:23.348Z,21.71
2016-11-03T09:52:23.028Z,21.71
2016-11-03T09:53:23.002Z,21.67
2016-11-03T09:54:23.301Z,21.75
2016-11-03T09:55:23.278Z,21.68
2016-11-03T09:56:23.262Z,21.7
2016-11-03T09:57:23.251Z,21.53
2016-11-03T09:58:23.269Z,21.59
2016-11-03T09:59:23.218Z,21.56
2016-11-03T10:00:23.208Z,21.55
2016-11-03T10:01:23.188Z,21.53
2016-11-03T10:02:23.170Z,21.56
2016-11-03T10:03:23.157Z,21.56
2016-11-03T10:04:23.140Z,21.61
2016-11-03T10:05:23.185Z,21.61
2016-11-03T10:06:23.124Z,21.55
2016-11-03T10:07:23.092Z,21.58
2016-11-03T10:08:23.081Z,21.61
2016-11-03T10:09:23.082Z,21.52
2016-11-03T10:10:23.082Z,21.56
2016-11-03T10:11:23.036Z,21.49
2016-11-03T10:12:23.028Z,21.45
2016-11-03T10:13:23.003Z,21.52
2016-11-03T10:14:23.001Z,21.55
2016-11-03T10:15:22.981Z,21.55
2016-11-03T10:16:22.660Z,21.49
2016-11-03T10:17:22.645Z,21.43
2016-11-03T10:18:22.930Z,21.46
2016-11-03T10:19:22.920Z,21.42
2016-11-03T10:20:22.897Z,21.43
2016-11-03T10:21:22.897Z,21.43
2016-11-03T10:22:23.869Z,21.45
2016-11-03T10:23:22.854Z,21.4
2016-11-03T10:24:22.842Z,21.43
2016-11-03T10:25:22.829Z,21.38
2016-11-03T10:26:22.807Z,21.42
2016-11-03T10:27:22.797Z,21.45
2016-11-03T10:28:22.778Z,21.4
2016-11-03T10:29:22.769Z,21.43
2016-11-03T10:30:22.748Z,21.38
2016-11-03T10:31:22.739Z,21.43
2016-11-03T10:32:22.719Z,21.42
2016-11-03T10:33:22.410Z,21.43
2016-11-03T10:34:22.699Z,21.38
2016-11-03T10:35:22.675Z,21.42
2016-11-03T10:36:22.662Z,21.43
2016-11-03T10:37:22.643Z,21.4
2016-11-03T10:38:22.333Z,21.42
2016-11-03T10:39:22.610Z,21.43
2016-11-03T10:40:22.597Z,21.43
2016-11-03T10:41:22.580Z,21.42
2016-11-03T10:42:22.263Z,21.45
2016-11-03T10:43:22.552Z,21.43
2016-11-03T10:44:22.538Z,21.43
2016-11-03T10:45:22.520Z,21.46
2016-11-03T10:46:22.506Z,21.4
2016-11-03T10:47:22.491Z,21.4
2016-11-03T10:48:22.513Z,21.48
2016-11-03T10:49:22.502Z,21.36
2016-11-03T10:50:22.445Z,21.33
2016-11-03T10:51:22.470Z,21.38
2016-11-03T10:52:22.413Z,21.4
2016-11-03T10:53:22.406Z,21.37
2016-11-03T10:54:22.382Z,21.4
2016-11-03T10:55:22.373Z,21.31
2016-11-03T10:56:22.364Z,21.38
2016-11-03T10:57:22.340Z,21.27
2016-11-03T10:58:22.083Z,21.27
2016-11-03T10:59:22.308Z,21.31
2016-11-03T11:00:22.295Z,21.43
2016-11-03T11:01:22.277Z,21.37
2016-11-03T11:02:22.264Z,21.37
2016-11-03T11:03:22.247Z,21.36
2016-11-03T11:04:22.226Z,21.34
2016-11-03T11:05:22.220Z,21.36
2016-11-03T11:06:21.902Z,21.31
2016-11-03T11:07:22.185Z,21.4
2016-11-03T11:08:22.175Z,21.34
2016-11-03T11:09:22.151Z,21.4
2016-11-03T11:10:22.946Z,21.33
2016-11-03T11:11:22.127Z,21.27
2016-11-03T11:12:22.108Z,21.34
2016-11-03T11:13:22.093Z,21.26
2016-11-03T11:14:22.073Z,21.36
2016-11-03T11:15:22.060Z,21.26
2016-11-03T11:16:22.059Z,21.24
2016-11-03T11:17:22.071Z,21.24
2016-11-03T11:18:22.044Z,21.3
2016-11-03T11:19:22.003Z,21.27
2016-11-03T11:20:21.992Z,21.28
2016-11-03T11:21:21.982Z,21.3
2016-11-03T11:22:21.975Z,21.3
2016-11-03T11:23:21.939Z,21.31
2016-11-03T11:24:21.931Z,21.28
2016-11-03T11:25:21.909Z,21.24
2016-11-03T11:26:21.892Z,21.22
2016-11-03T11:27:21.885Z,21.22
2016-11-03T11:28:21.863Z,21.28
2016-11-03T11:29:21.850Z,21.21
2016-11-03T11:30:21.835Z,21.28
2016-11-03T11:31:21.829Z,21.21
2016-11-03T11:32:21.807Z,21.26
2016-11-03T11:33:21.789Z,21.28
2016-11-03T11:34:21.771Z,21.28
2016-11-03T11:35:21.465Z,21.13
2016-11-03T11:36:21.746Z,21.13
2016-11-03T11:37:21.729Z,21.13
2016-11-03T11:38:21.713Z,21.24
2016-11-03T11:39:21.741Z,21.13
2016-11-03T11:40:21.679Z,21.15
2016-11-03T11:41:21.661Z,21.19
2016-11-03T11:42:21.653Z,21.12
2016-11-03T11:43:21.645Z,21.12
2016-11-03T11:44:21.317Z,21.11
2016-11-03T11:45:21.618Z,21.12
2016-11-03T11:46:21.613Z,21.13
2016-11-03T11:47:21.572Z,21.18
2016-11-03T11:48:21.558Z,21.15
2016-11-03T11:49:21.547Z,21.15
2016-11-03T11:50:21.540Z,21.13
2016-11-03T11:51:21.513Z,21.22
2016-11-03T11:52:21.493Z,21.13
2016-11-03T11:53:21.484Z,21.22
2016-11-03T11:54:21.471Z,21.11
2016-11-03T11:55:21.476Z,21.15
2016-11-03T11:56:21.436Z,21.12
2016-11-03T11:57:21.417Z,21.16
2016-11-03T11:58:21.404Z,21.12
2016-11-03T11:59:21.389Z,21.11
2016-11-03T12:00:21.375Z,21.05
2016-11-03T12:01:21.355Z,21.13
2016-11-03T12:02:21.347Z,21.09
2016-11-03T12:03:21.332Z,21.15
2016-11-03T12:04:21.313Z,21.13
2016-11-03T12:05:21.298Z,21.08
2016-11-03T12:06:21.277Z,21.09
2016-11-03T12:07:21.264Z,21.13
2016-11-03T12:08:21.284Z,21.12
2016-11-03T12:09:21.231Z,21.06
2016-11-03T12:10:21.228Z,21.06
2016-11-03T12:11:21.205Z,21.11
2016-11-03T12:12:21.189Z,21.11
2016-11-03T12:13:21.170Z,21.05
2016-11-03T12:14:21.157Z,21.06
2016-11-03T12:15:21.144Z,21.05
2016-11-03T12:16:21.125Z,21.06
2016-11-03T12:17:21.123Z,21.05
2016-11-03T12:18:21.094Z,21
2016-11-03T12:19:21.084Z,21.01
2016-11-03T12:20:20.770Z,21
2016-11-03T12:21:21.045Z,20.98
2016-11-03T12:22:21.038Z,20.97
2016-11-03T12:23:21.023Z,21.01
2016-11-03T12:24:21.035Z,21.03
2016-11-03T12:25:20.986Z,20.98
2016-11-03T12:26:20.977Z,21.01
2016-11-03T12:27:20.956Z,20.98
2016-11-03T12:28:20.941Z,20.98
2016-11-03T12:29:20.928Z,20.97
2016-11-03T12:30:20.915Z,21.05
2016-11-03T12:31:20.292Z,21.09
2016-11-03T12:32:20.891Z,20.98
2016-11-03T12:33:20.563Z,20.96
2016-11-03T12:34:20.850Z,21.08
2016-11-03T12:35:20.839Z,21.05
2016-11-03T12:36:20.516Z,21.03
2016-11-03T12:37:20.515Z,21.09
2016-11-03T12:38:20.791Z,21.06
2016-11-03T12:39:20.811Z,21.03
2016-11-03T12:40:20.756Z,21.05
2016-11-03T12:41:20.742Z,21.01
2016-11-03T12:42:20.731Z,21.05
2016-11-03T12:43:20.418Z,21.05
2016-11-03T12:44:20.696Z,21.03
2016-11-03T12:45:20.681Z,21
2016-11-03T12:46:20.667Z,21.01
2016-11-03T12:47:20.347Z,20.97
2016-11-03T12:48:20.638Z,21.03
2016-11-03T12:49:20.621Z,21
2016-11-03T12:50:20.603Z,20.98
2016-11-03T12:51:20.591Z,21.08
2016-11-03T12:52:20.579Z,21.06
2016-11-03T12:53:20.563Z,21.05
2016-11-03T12:54:20.545Z,21
2016-11-03T12:55:20.531Z,20.98
2016-11-03T12:56:20.522Z,20.97
2016-11-03T12:57:20.200Z,21